sensor_id;sensor_type;location;lat;lon;timestamp;pressure;altitude;pressure_sealevel;temperature;humidity
3122;BME280;1571;52.524;14.104;2023-02-12T00:01:25;102991.00;;;5.70;100.00
3122;BME280;1571;52.524;14.104;2023-02-12T00:03:54;102994.44;;;5.78;100.00
3122;BME280;1571;52.524;14.104;2023-02-12T00:06:23;102997.13;;;5.69;100.00
3122;BME280;1571;52.524;14.104;2023-02-12T00:08:54;102994.50;;;5.69;100.00
3122;BME280;1571;52.524;14.104;2023-02-12T00:11:24;102998.88;;;5.74;100.00
3122;BME280;1571;52.524;14.104;2023-02-12T00:13:53;103002.34;;;5.78;100.00
3122;BME280;1571;52.524;14.104;2023-02-12T00:16:24;103013.84;;;5.68;100.00
3122;BME280;1571;52.524;14.104;2023-02-12T00:18:55;103019.19;;;5.58;100.00
3122;BME280;1571;52.524;14.104;2023-02-12T00:21:23;103021.75;;;5.68;100.00
3122;BME280;1571;52.524;14.104;2023-02-12T00:23:54;103016.53;;;5.58;100.00
3122;BME280;1571;52.524;14.104;2023-02-12T00:26:22;103024.44;;;5.55;100.00
3122;BME280;1571;52.524;14.104;2023-02-12T00:28:52;103027.06;;;5.54;100.00
3122;BME280;1571;52.524;14.104;2023-02-12T00:31:22;103024.34;;;5.74;100.00
3122;BME280;1571;52.524;14.104;2023-02-12T00:33:51;103021.72;;;5.72;100.00
3122;BME280;1571;52.524;14.104;2023-02-12T00:36:22;103029.59;;;5.80;100.00
3122;BME280;1571;52.524;14.104;2023-02-12T00:38:53;103031.38;;;5.72;100.00
3122;BME280;1571;52.524;14.104;2023-02-12T00:41:24;103023.53;;;5.66;100.00
3122;BME280;1571;52.524;14.104;2023-02-12T00:43:52;103021.75;;;5.66;100.00
3122;BME280;1571;52.524;14.104;2023-02-12T00:46:21;103026.09;;;5.73;100.00
3122;BME280;1571;52.524;14.104;2023-02-12T00:48:49;103021.78;;;5.60;100.00
3122;BME280;1571;52.524;14.104;2023-02-12T00:51:19;103032.31;;;5.66;100.00
3122;BME280;1571;52.524;14.104;2023-02-12T00:53:47;103027.88;;;5.71;100.00
3122;BME280;1571;52.524;14.104;2023-02-12T00:56:17;103022.59;;;5.73;100.00
3122;BME280;1571;52.524;14.104;2023-02-12T00:58:48;103024.38;;;5.64;100.00
3122;BME280;1571;52.524;14.104;2023-02-12T01:01:17;103024.38;;;5.69;100.00
3122;BME280;1571;52.524;14.104;2023-02-12T01:03:45;103019.97;;;5.74;100.00
3122;BME280;1571;52.524;14.104;2023-02-12T01:06:14;103025.22;;;5.71;100.00
3122;BME280;1571;52.524;14.104;2023-02-12T01:08:42;103026.09;;;5.75;100.00
3122;BME280;1571;52.524;14.104;2023-02-12T01:11:12;103021.75;;;5.66;100.00
3122;BME280;1571;52.524;14.104;2023-02-12T01:13:41;103022.69;;;5.53;100.00
3122;BME280;1571;52.524;14.104;2023-02-12T01:16:15;103023.50;;;5.67;100.00
3122;BME280;1571;52.524;14.104;2023-02-12T01:18:44;103024.38;;;5.64;100.00
3122;BME280;1571;52.524;14.104;2023-02-12T01:21:15;103033.16;;;5.67;100.00
3122;BME280;1571;52.524;14.104;2023-02-12T01:23:44;103030.56;;;5.62;100.00
3122;BME280;1571;52.524;14.104;2023-02-12T01:26:13;103034.09;;;5.61;100.00
3122;BME280;1571;52.524;14.104;2023-02-12T01:28:47;103032.34;;;5.57;100.00
3122;BME280;1571;52.524;14.104;2023-02-12T01:31:18;103041.13;;;5.59;100.00
3122;BME280;1571;52.524;14.104;2023-02-12T01:33:51;103041.97;;;5.64;100.00
3122;BME280;1571;52.524;14.104;2023-02-12T01:36:20;103041.97;;;5.62;100.00
3122;BME280;1571;52.524;14.104;2023-02-12T01:38:49;103041.16;;;5.53;100.00
3122;BME280;1571;52.524;14.104;2023-02-12T01:41:19;103036.81;;;5.41;100.00
3122;BME280;1571;52.524;14.104;2023-02-12T01:44:05;103046.44;;;5.48;100.00
3122;BME280;1571;52.524;14.104;2023-02-12T01:46:34;103045.63;;;5.38;100.00
3122;BME280;1571;52.524;14.104;2023-02-12T01:49:06;103047.34;;;5.39;100.00
3122;BME280;1571;52.524;14.104;2023-02-12T01:51:36;103044.75;;;5.30;100.00
3122;BME280;1571;52.524;14.104;2023-02-12T01:54:07;103049.16;;;5.30;100.00
3122;BME280;1571;52.524;14.104;2023-02-12T01:56:38;103047.44;;;5.16;100.00
3122;BME280;1571;52.524;14.104;2023-02-12T01:59:08;103055.28;;;5.32;100.00
3122;BME280;1571;52.524;14.104;2023-02-12T02:01:37;103056.19;;;5.21;100.00
3122;BME280;1571;52.524;14.104;2023-02-12T02:04:09;103057.97;;;5.10;100.00
3122;BME280;1571;52.524;14.104;2023-02-12T02:06:46;103064.09;;;5.23;100.00
3122;BME280;1571;52.524;14.104;2023-02-12T02:09:17;103065.00;;;5.08;100.00
3122;BME280;1571;52.524;14.104;2023-02-12T02:11:46;103057.97;;;5.18;100.00
3122;BME280;1571;52.524;14.104;2023-02-12T02:14:33;103061.47;;;5.15;100.00
3122;BME280;1571;52.524;14.104;2023-02-12T02:17:12;103074.63;;;5.15;100.00
3122;BME280;1571;52.524;14.104;2023-02-12T02:20:00;103079.03;;;5.10;100.00
3122;BME280;1571;52.524;14.104;2023-02-12T02:22:36;103071.13;;;5.13;100.00
3122;BME280;1571;52.524;14.104;2023-02-12T02:25:30;103072.00;;;5.15;100.00
3122;BME280;1571;52.524;14.104;2023-02-12T02:28:13;103075.53;;;5.14;100.00
3122;BME280;1571;52.524;14.104;2023-02-12T02:30:50;103072.91;;;5.08;100.00
3122;BME280;1571;52.524;14.104;2023-02-12T02:33:27;103080.81;;;5.11;100.00
3122;BME280;1571;52.524;14.104;2023-02-12T02:36:12;103074.63;;;5.21;100.00
3122;BME280;1571;52.524;14.104;2023-02-12T02:38:45;103079.03;;;5.16;100.00
3122;BME280;1571;52.524;14.104;2023-02-12T02:41:21;103084.28;;;5.13;100.00
3122;BME280;1571;52.524;14.104;2023-02-12T02:43:54;103078.16;;;5.02;100.00
3122;BME280;1571;52.524;14.104;2023-02-12T02:46:26;103079.09;;;4.98;100.00
3122;BME280;1571;52.524;14.104;2023-02-12T02:48:59;103081.72;;;4.90;100.00
3122;BME280;1571;52.524;14.104;2023-02-12T02:51:31;103080.00;;;4.75;100.00
3122;BME280;1571;52.524;14.104;2023-02-12T02:54:04;103072.09;;;4.74;100.00
3122;BME280;1571;52.524;14.104;2023-02-12T02:56:37;103076.47;;;4.70;100.00
3122;BME280;1571;52.524;14.104;2023-02-12T02:59:09;103078.22;;;4.71;100.00
3122;BME280;1571;52.524;14.104;2023-02-12T03:01:43;103087.00;;;4.64;100.00
3122;BME280;1571;52.524;14.104;2023-02-12T03:04:17;103082.63;;;4.66;100.00
3122;BME280;1571;52.524;14.104;2023-02-12T03:06:52;103085.25;;;4.68;100.00
3122;BME280;1571;52.524;14.104;2023-02-12T03:09:25;103086.13;;;4.62;100.00
3122;BME280;1571;52.524;14.104;2023-02-12T03:11:58;103092.25;;;4.56;100.00
3122;BME280;1571;52.524;14.104;2023-02-12T03:14:30;103101.03;;;4.54;100.00
3122;BME280;1571;52.524;14.104;2023-02-12T03:17:04;103114.19;;;4.45;100.00
3122;BME280;1571;52.524;14.104;2023-02-12T03:19:37;103114.16;;;4.43;100.00
3122;BME280;1571;52.524;14.104;2023-02-12T03:22:10;103115.94;;;4.40;100.00
3122;BME280;1571;52.524;14.104;2023-02-12T03:24:43;103128.22;;;4.44;100.00
3122;BME280;1571;52.524;14.104;2023-02-12T03:27:16;103128.19;;;4.41;100.00
3122;BME280;1571;52.524;14.104;2023-02-12T03:29:47;103131.69;;;4.33;100.00
3122;BME280;1571;52.524;14.104;2023-02-12T03:32:23;103138.75;;;4.53;100.00
3122;BME280;1571;52.524;14.104;2023-02-12T03:35:06;103144.00;;;4.56;100.00
3122;BME280;1571;52.524;14.104;2023-02-12T03:37:40;103149.25;;;4.47;100.00
3122;BME280;1571;52.524;14.104;2023-02-12T03:40:15;103148.41;;;4.60;100.00
3122;BME280;1571;52.524;14.104;2023-02-12T03:42:49;103150.13;;;4.61;100.00
3122;BME280;1571;52.524;14.104;2023-02-12T03:45:26;103146.63;;;4.56;100.00
3122;BME280;1571;52.524;14.104;2023-02-12T03:48:02;103150.16;;;4.58;100.00
3122;BME280;1571;52.524;14.104;2023-02-12T03:50:38;103150.16;;;4.55;100.00
3122;BME280;1571;52.524;14.104;2023-02-12T03:53:10;103158.03;;;4.76;100.00
3122;BME280;1571;52.524;14.104;2023-02-12T03:55:41;103156.28;;;4.69;100.00
3122;BME280;1571;52.524;14.104;2023-02-12T03:58:13;103157.16;;;4.68;100.00
3122;BME280;1571;52.524;14.104;2023-02-12T04:00:44;103169.44;;;4.83;100.00
3122;BME280;1571;52.524;14.104;2023-02-12T04:03:14;103173.84;;;4.83;100.00
3122;BME280;1571;52.524;14.104;2023-02-12T04:05:42;103167.69;;;4.94;100.00
3122;BME280;1571;52.524;14.104;2023-02-12T04:08:11;103175.59;;;5.02;100.00
3122;BME280;1571;52.524;14.104;2023-02-12T04:10:47;103164.19;;;4.88;100.00
3122;BME280;1571;52.524;14.104;2023-02-12T04:13:25;103169.44;;;5.03;100.00
3122;BME280;1571;52.524;14.104;2023-02-12T04:16:02;103168.59;;;5.07;100.00
3122;BME280;1571;52.524;14.104;2023-02-12T04:18:39;103159.78;;;4.99;100.00
3122;BME280;1571;52.524;14.104;2023-02-12T04:21:13;103159.81;;;5.05;100.00
3122;BME280;1571;52.524;14.104;2023-02-12T04:23:48;103156.28;;;5.08;100.00
3122;BME280;1571;52.524;14.104;2023-02-12T04:26:24;103155.41;;;5.12;100.00
3122;BME280;1571;52.524;14.104;2023-02-12T04:29:07;103145.75;;;5.03;100.00
3122;BME280;1571;52.524;14.104;2023-02-12T04:31:39;103145.72;;;5.15;100.00
3122;BME280;1571;52.524;14.104;2023-02-12T04:34:17;103146.63;;;5.04;100.00
3122;BME280;1571;52.524;14.104;2023-02-12T04:36:52;103139.63;;;4.98;100.00
3122;BME280;1571;52.524;14.104;2023-02-12T04:39:26;103127.31;;;4.97;100.00
3122;BME280;1571;52.524;14.104;2023-02-12T04:41:57;103131.72;;;5.01;100.00
3122;BME280;1571;52.524;14.104;2023-02-12T04:44:27;103122.94;;;5.05;100.00
3122;BME280;1571;52.524;14.104;2023-02-12T04:46:57;103127.31;;;4.91;100.00
3122;BME280;1571;52.524;14.104;2023-02-12T04:49:26;103123.81;;;4.90;100.00
3122;BME280;1571;52.524;14.104;2023-02-12T04:51:54;103139.63;;;4.92;100.00
3122;BME280;1571;52.524;14.104;2023-02-12T04:54:23;103137.84;;;4.97;100.00
3122;BME280;1571;52.524;14.104;2023-02-12T04:56:51;103128.22;;;4.90;100.00
3122;BME280;1571;52.524;14.104;2023-02-12T04:59:20;103137.00;;;4.83;100.00
3122;BME280;1571;52.524;14.104;2023-02-12T05:01:48;103129.09;;;4.56;100.00
3122;BME280;1571;52.524;14.104;2023-02-12T05:04:17;103129.97;;;4.54;100.00
3122;BME280;1571;52.524;14.104;2023-02-12T05:06:47;103132.59;;;4.51;100.00
3122;BME280;1571;52.524;14.104;2023-02-12T05:09:16;103131.72;;;4.55;100.00
3122;BME280;1571;52.524;14.104;2023-02-12T05:11:45;103133.47;;;4.44;100.00
3122;BME280;1571;52.524;14.104;2023-02-12T05:14:14;103136.13;;;4.53;100.00
3122;BME280;1571;52.524;14.104;2023-02-12T05:16:42;103136.97;;;4.49;100.00
3122;BME280;1571;52.524;14.104;2023-02-12T05:19:11;103136.13;;;4.77;100.00
3122;BME280;1571;52.524;14.104;2023-02-12T05:21:39;103134.34;;;4.66;100.00
3122;BME280;1571;52.524;14.104;2023-02-12T05:24:08;103133.47;;;4.59;100.00
3122;BME280;1571;52.524;14.104;2023-02-12T05:26:37;103133.47;;;4.68;100.00
3122;BME280;1571;52.524;14.104;2023-02-12T05:29:05;103124.72;;;4.85;100.00
3122;BME280;1571;52.524;14.104;2023-02-12T05:31:33;103115.03;;;4.88;100.00
3122;BME280;1571;52.524;14.104;2023-02-12T05:34:02;103120.31;;;4.85;100.00
3122;BME280;1571;52.524;14.104;2023-02-12T05:36:30;103115.94;;;4.86;100.00
3122;BME280;1571;52.524;14.104;2023-02-12T05:38:58;103120.34;;;4.71;100.00
3122;BME280;1571;52.524;14.104;2023-02-12T05:41:28;103115.94;;;4.70;100.00
3122;BME280;1571;52.524;14.104;2023-02-12T05:44:01;103107.16;;;4.74;100.00
3122;BME280;1571;52.524;14.104;2023-02-12T05:46:30;103103.66;;;4.80;100.00
3122;BME280;1571;52.524;14.104;2023-02-12T05:48:58;103104.53;;;4.79;100.00
3122;BME280;1571;52.524;14.104;2023-02-12T05:51:27;103099.28;;;4.82;100.00
3122;BME280;1571;52.524;14.104;2023-02-12T05:53:58;103097.53;;;4.69;100.00
3122;BME280;1571;52.524;14.104;2023-02-12T05:56:30;103093.16;;;4.71;100.00
3122;BME280;1571;52.524;14.104;2023-02-12T05:59:00;103099.28;;;4.73;100.00
3122;BME280;1571;52.524;14.104;2023-02-12T06:01:31;103102.78;;;4.81;100.00
3122;BME280;1571;52.524;14.104;2023-02-12T06:04:00;103099.28;;;4.80;100.00
3122;BME280;1571;52.524;14.104;2023-02-12T06:06:29;103094.91;;;4.78;100.00
3122;BME280;1571;52.524;14.104;2023-02-12T06:08:58;103094.00;;;4.54;100.00
3122;BME280;1571;52.524;14.104;2023-02-12T06:11:27;103101.91;;;4.74;100.00
3122;BME280;1571;52.524;14.104;2023-02-12T06:13:56;103101.91;;;4.56;100.00
3122;BME280;1571;52.524;14.104;2023-02-12T06:16:26;103104.53;;;4.59;100.00
3122;BME280;1571;52.524;14.104;2023-02-12T06:18:55;103105.41;;;4.61;100.00
3122;BME280;1571;52.524;14.104;2023-02-12T06:21:25;103115.06;;;4.62;100.00
3122;BME280;1571;52.524;14.104;2023-02-12T06:23:54;103096.66;;;4.71;100.00
3122;BME280;1571;52.524;14.104;2023-02-12T06:26:23;103118.56;;;4.49;100.00
3122;BME280;1571;52.524;14.104;2023-02-12T06:28:51;103123.84;;;4.53;100.00
3122;BME280;1571;52.524;14.104;2023-02-12T06:31:23;103120.31;;;4.64;100.00
3122;BME280;1571;52.524;14.104;2023-02-12T06:33:53;103124.72;;;4.62;100.00
3122;BME280;1571;52.524;14.104;2023-02-12T06:36:22;103130.84;;;4.65;100.00
3122;BME280;1571;52.524;14.104;2023-02-12T06:38:51;103134.34;;;4.56;100.00
3122;BME280;1571;52.524;14.104;2023-02-12T06:41:19;103138.75;;;4.65;100.00
3122;BME280;1571;52.524;14.104;2023-02-12T06:43:48;103134.38;;;4.50;100.00
3122;BME280;1571;52.524;14.104;2023-02-12T06:46:17;103148.38;;;4.58;100.00
3122;BME280;1571;52.524;14.104;2023-02-12T06:48:46;103140.50;;;4.66;100.00
3122;BME280;1571;52.524;14.104;2023-02-12T06:51:16;103147.47;;;4.46;100.00
3122;BME280;1571;52.524;14.104;2023-02-12T06:53:48;103148.38;;;4.42;100.00
3122;BME280;1571;52.524;14.104;2023-02-12T06:56:17;103159.78;;;4.59;100.00
3122;BME280;1571;52.524;14.104;2023-02-12T06:58:46;103162.41;;;4.68;100.00
3122;BME280;1571;52.524;14.104;2023-02-12T07:01:17;103168.59;;;4.83;100.00
3122;BME280;1571;52.524;14.104;2023-02-12T07:03:48;103160.66;;;4.66;100.00
3122;BME280;1571;52.524;14.104;2023-02-12T07:06:17;103170.34;;;4.80;100.00
3122;BME280;1571;52.524;14.104;2023-02-12T07:08:46;103169.44;;;4.72;100.00
3122;BME280;1571;52.524;14.104;2023-02-12T07:11:15;103172.09;;;4.69;100.00
3122;BME280;1571;52.524;14.104;2023-02-12T07:13:44;103175.59;;;4.90;100.00
3122;BME280;1571;52.524;14.104;2023-02-12T07:16:13;103179.09;;;4.76;100.00
3122;BME280;1571;52.524;14.104;2023-02-12T07:18:43;103184.38;;;4.98;100.00
3122;BME280;1571;52.524;14.104;2023-02-12T07:21:14;103182.63;;;5.09;100.00
3122;BME280;1571;52.524;14.104;2023-02-12T07:23:45;103171.19;;;5.19;100.00
3122;BME280;1571;52.524;14.104;2023-02-12T07:26:18;103172.06;;;5.12;100.00
3122;BME280;1571;52.524;14.104;2023-02-12T07:28:47;103177.34;;;5.06;100.00
3122;BME280;1571;52.524;14.104;2023-02-12T07:31:17;103172.97;;;5.04;100.00
3122;BME280;1571;52.524;14.104;2023-02-12T07:33:46;103171.19;;;5.04;100.00
3122;BME280;1571;52.524;14.104;2023-02-12T07:36:18;103172.09;;;4.94;100.00
3122;BME280;1571;52.524;14.104;2023-02-12T07:38:46;103165.94;;;4.66;100.00
3122;BME280;1571;52.524;14.104;2023-02-12T07:41:16;103158.03;;;4.79;100.00
3122;BME280;1571;52.524;14.104;2023-02-12T07:43:46;103158.06;;;4.92;100.00
3122;BME280;1571;52.524;14.104;2023-02-12T07:46:17;103161.56;;;4.98;100.00
3122;BME280;1571;52.524;14.104;2023-02-12T07:48:46;103155.41;;;5.12;100.00
3122;BME280;1571;52.524;14.104;2023-02-12T07:51:17;103153.63;;;5.15;100.00
3122;BME280;1571;52.524;14.104;2023-02-12T07:53:45;103155.41;;;5.12;100.00
3122;BME280;1571;52.524;14.104;2023-02-12T07:56:16;103147.50;;;5.26;100.00
3122;BME280;1571;52.524;14.104;2023-02-12T07:58:45;103155.38;;;5.24;100.00
3122;BME280;1571;52.524;14.104;2023-02-12T08:01:16;103158.91;;;5.29;100.00
3122;BME280;1571;52.524;14.104;2023-02-12T08:03:46;103165.06;;;5.20;100.00
3122;BME280;1571;52.524;14.104;2023-02-12T08:06:18;103165.03;;;5.33;100.00
3122;BME280;1571;52.524;14.104;2023-02-12T08:08:46;103163.25;;;5.52;100.00
3122;BME280;1571;52.524;14.104;2023-02-12T08:11:14;103168.50;;;5.50;100.00
3122;BME280;1571;52.524;14.104;2023-02-12T08:13:44;103172.97;;;5.16;100.00
3122;BME280;1571;52.524;14.104;2023-02-12T08:16:14;103177.34;;;5.23;100.00
3122;BME280;1571;52.524;14.104;2023-02-12T08:18:42;103180.78;;;5.51;100.00
3122;BME280;1571;52.524;14.104;2023-02-12T08:21:13;103181.66;;;5.66;100.00
3122;BME280;1571;52.524;14.104;2023-02-12T08:23:43;103182.56;;;5.58;100.00
3122;BME280;1571;52.524;14.104;2023-02-12T08:26:13;103187.81;;;5.61;100.00
3122;BME280;1571;52.524;14.104;2023-02-12T08:28:43;103187.78;;;5.71;100.00
3122;BME280;1571;52.524;14.104;2023-02-12T08:31:14;103182.47;;;5.80;100.00
3122;BME280;1571;52.524;14.104;2023-02-12T08:33:43;103185.97;;;5.88;100.00
3122;BME280;1571;52.524;14.104;2023-02-12T08:36:13;103186.81;;;5.92;100.00
3122;BME280;1571;52.524;14.104;2023-02-12T08:38:44;103192.09;;;5.93;100.00
3122;BME280;1571;52.524;14.104;2023-02-12T08:41:14;103190.34;;;5.98;100.00
3122;BME280;1571;52.524;14.104;2023-02-12T08:43:47;103186.81;;;5.87;100.00
3122;BME280;1571;52.524;14.104;2023-02-12T08:46:17;103187.72;;;5.92;100.00
3122;BME280;1571;52.524;14.104;2023-02-12T08:48:46;103200.94;;;5.81;100.00
3122;BME280;1571;52.524;14.104;2023-02-12T08:51:16;103195.63;;;5.92;100.00
3122;BME280;1571;52.524;14.104;2023-02-12T08:53:47;103191.22;;;5.90;100.00
3122;BME280;1571;52.524;14.104;2023-02-12T08:56:16;103189.47;;;5.87;100.00
3122;BME280;1571;52.524;14.104;2023-02-12T08:58:45;103198.28;;;5.80;100.00
3122;BME280;1571;52.524;14.104;2023-02-12T09:01:15;103200.97;;;5.72;100.00
3122;BME280;1571;52.524;14.104;2023-02-12T09:03:45;103205.28;;;5.96;100.00
3122;BME280;1571;52.524;14.104;2023-02-12T09:06:15;103214.06;;;5.89;100.00
3122;BME280;1571;52.524;14.104;2023-02-12T09:08:45;103212.31;;;6.03;100.00
3122;BME280;1571;52.524;14.104;2023-02-12T09:11:15;103210.53;;;6.04;100.00
3122;BME280;1571;52.524;14.104;2023-02-12T09:13:45;103213.13;;;6.12;100.00
3122;BME280;1571;52.524;14.104;2023-02-12T09:16:14;103214.06;;;6.01;100.00
3122;BME280;1571;52.524;14.104;2023-02-12T09:18:42;103214.06;;;6.00;100.00
3122;BME280;1571;52.524;14.104;2023-02-12T09:21:13;103216.66;;;6.15;100.00
3122;BME280;1571;52.524;14.104;2023-02-12T09:23:43;103215.72;;;6.27;100.00
3122;BME280;1571;52.524;14.104;2023-02-12T09:26:14;103222.69;;;6.34;100.00
3122;BME280;1571;52.524;14.104;2023-02-12T09:28:43;103221.75;;;6.49;100.00
3122;BME280;1571;52.524;14.104;2023-02-12T09:31:13;103212.03;;;6.54;100.00
3122;BME280;1571;52.524;14.104;2023-02-12T09:33:42;103217.31;;;6.53;100.00
3122;BME280;1571;52.524;14.104;2023-02-12T09:36:12;103219.19;;;6.32;100.00
3122;BME280;1571;52.524;14.104;2023-02-12T09:38:40;103217.22;;;6.68;100.00
3122;BME280;1571;52.524;14.104;2023-02-12T09:44:19;103214.56;;;6.74;100.00
3122;BME280;1571;52.524;14.104;2023-02-12T09:46:53;103211.88;;;6.80;100.00
3122;BME280;1571;52.524;14.104;2023-02-12T09:49:40;103209.97;;;6.98;100.00
3122;BME280;1571;52.524;14.104;2023-02-12T09:52:14;103204.72;;;6.96;100.00
3122;BME280;1571;52.524;14.104;2023-02-12T09:54:43;103195.88;;;6.99;100.00
3122;BME280;1571;52.524;14.104;2023-02-12T09:57:16;103204.56;;;7.13;100.00
3122;BME280;1571;52.524;14.104;2023-02-12T09:59:51;103194.09;;;7.01;100.00
3122;BME280;1571;52.524;14.104;2023-02-12T10:02:22;103206.50;;;6.93;100.00
3122;BME280;1571;52.524;14.104;2023-02-12T10:04:52;103201.03;;;7.11;100.00
3122;BME280;1571;52.524;14.104;2023-02-12T10:07:46;103198.47;;;7.05;100.00
3122;BME280;1571;52.524;14.104;2023-02-12T10:10:30;103196.72;;;7.05;100.00
3122;BME280;1571;52.524;14.104;2023-02-12T10:13:04;103195.75;;;7.11;100.00
3122;BME280;1571;52.524;14.104;2023-02-12T10:15:43;103184.44;;;6.98;100.00
3122;BME280;1571;52.524;14.104;2023-02-12T10:18:33;103190.41;;;7.20;100.00
3122;BME280;1571;52.524;14.104;2023-02-12T10:21:14;103200.97;;;7.20;100.00
3122;BME280;1571;52.524;14.104;2023-02-12T10:24:05;103186.97;;;7.09;100.00
3122;BME280;1571;52.524;14.104;2023-02-12T10:26:41;103186.88;;;7.20;100.00
3122;BME280;1571;52.524;14.104;2023-02-12T10:29:16;103183.38;;;7.19;100.00
3122;BME280;1571;52.524;14.104;2023-02-12T10:31:52;103174.59;;;7.17;100.00
3122;BME280;1571;52.524;14.104;2023-02-12T10:34:24;103170.97;;;7.27;100.00
3122;BME280;1571;52.524;14.104;2023-02-12T10:36:58;103176.28;;;7.24;100.00
3122;BME280;1571;52.524;14.104;2023-02-12T10:39:38;103171.84;;;7.26;100.00
3122;BME280;1571;52.524;14.104;2023-02-12T10:42:11;103170.16;;;7.21;100.00
3122;BME280;1571;52.524;14.104;2023-02-12T10:44:42;103166.59;;;7.23;100.00
3122;BME280;1571;52.524;14.104;2023-02-12T10:47:17;103170.88;;;7.37;100.00
3122;BME280;1571;52.524;14.104;2023-02-12T10:49:49;103164.56;;;7.50;100.00
3122;BME280;1571;52.524;14.104;2023-02-12T10:52:27;103160.91;;;7.62;100.00
3122;BME280;1571;52.524;14.104;2023-02-12T10:54:57;103161.84;;;7.59;100.00
3122;BME280;1571;52.524;14.104;2023-02-12T10:57:29;103158.16;;;7.72;100.00
3122;BME280;1571;52.524;14.104;2023-02-12T11:00:19;103161.38;;;7.96;100.00
3122;BME280;1571;52.524;14.104;2023-02-12T11:03:02;103156.16;;;7.90;100.00
3122;BME280;1571;52.524;14.104;2023-02-12T11:05:33;103157.91;;;7.91;100.00
3122;BME280;1571;52.524;14.104;2023-02-12T11:08:02;103150.19;;;7.74;100.00
3122;BME280;1571;52.524;14.104;2023-02-12T11:10:36;103142.00;;;7.94;100.00
3122;BME280;1571;52.524;14.104;2023-02-12T11:13:21;103145.44;;;7.99;100.00
3122;BME280;1571;52.524;14.104;2023-02-12T11:15:51;103140.28;;;7.90;100.00
3122;BME280;1571;52.524;14.104;2023-02-12T11:18:23;103139.47;;;7.83;100.00
3122;BME280;1571;52.524;14.104;2023-02-12T11:20:54;103140.22;;;7.96;100.00
3122;BME280;1571;52.524;14.104;2023-02-12T11:23:26;103144.69;;;7.92;100.00
3122;BME280;1571;52.524;14.104;2023-02-12T11:25:58;103139.41;;;7.89;100.00
3122;BME280;1571;52.524;14.104;2023-02-12T11:28:27;103134.00;;;7.99;100.00
3122;BME280;1571;52.524;14.104;2023-02-12T11:30:57;103140.06;;;8.08;100.00
3122;BME280;1571;52.524;14.104;2023-02-12T11:33:30;103142.47;;;7.57;100.00
3122;BME280;1571;52.524;14.104;2023-02-12T11:36:02;103140.84;;;7.45;100.00
3122;BME280;1571;52.524;14.104;2023-02-12T11:38:36;103139.88;;;7.51;100.00
3122;BME280;1571;52.524;14.104;2023-02-12T11:41:16;103142.34;;;7.66;100.00
3122;BME280;1571;52.524;14.104;2023-02-12T11:43:48;103145.00;;;7.66;100.00
3122;BME280;1571;52.524;14.104;2023-02-12T11:46:19;103147.41;;;7.85;100.00
3122;BME280;1571;52.524;14.104;2023-02-12T11:48:50;103143.91;;;7.81;100.00
3122;BME280;1571;52.524;14.104;2023-02-12T11:51:22;103145.75;;;7.78;100.00
3122;BME280;1571;52.524;14.104;2023-02-12T11:53:53;103139.53;;;7.79;100.00
3122;BME280;1571;52.524;14.104;2023-02-12T11:56:23;103135.94;;;7.86;100.00
3122;BME280;1571;52.524;14.104;2023-02-12T11:58:52;103137.06;;;7.66;100.00
3122;BME280;1571;52.524;14.104;2023-02-12T12:01:26;103133.72;;;7.52;100.00
3122;BME280;1571;52.524;14.104;2023-02-12T12:04:02;103129.41;;;7.43;100.00
3122;BME280;1571;52.524;14.104;2023-02-12T12:06:35;103130.44;;;7.28;100.00
3122;BME280;1571;52.524;14.104;2023-02-12T12:09:12;103135.72;;;7.28;100.00
3122;BME280;1571;52.524;14.104;2023-02-12T12:11:46;103132.31;;;7.19;100.00
3122;BME280;1571;52.524;14.104;2023-02-12T12:14:22;103133.22;;;7.15;100.00
3122;BME280;1571;52.524;14.104;2023-02-12T12:16:55;103139.22;;;7.30;100.00
3122;BME280;1571;52.524;14.104;2023-02-12T12:19:55;103146.19;;;7.41;100.00
3122;BME280;1571;52.524;14.104;2023-02-12T12:22:39;103142.69;;;7.36;100.00
3122;BME280;1571;52.524;14.104;2023-02-12T12:25:17;103135.50;;;7.48;100.00
3122;BME280;1571;52.524;14.104;2023-02-12T12:27:55;103138.91;;;7.61;100.00
3122;BME280;1571;52.524;14.104;2023-02-12T12:31:00;103139.03;;;7.49;100.00
3122;BME280;1571;52.524;14.104;2023-02-12T12:33:37;103138.00;;;7.62;100.00
3122;BME280;1571;52.524;14.104;2023-02-12T12:36:47;103131.09;;;7.49;100.00
3122;BME280;1571;52.524;14.104;2023-02-12T12:39:26;103124.00;;;7.53;100.00
3122;BME280;1571;52.524;14.104;2023-02-12T12:42:24;103122.34;;;7.44;100.00
3122;BME280;1571;52.524;14.104;2023-02-12T12:45:09;103118.16;;;7.24;100.00
3122;BME280;1571;52.524;14.104;2023-02-12T12:47:52;103120.69;;;7.34;100.00
3122;BME280;1571;52.524;14.104;2023-02-12T12:50:34;103123.44;;;7.24;100.00
3122;BME280;1571;52.524;14.104;2023-02-12T12:53:17;103125.34;;;7.08;100.00
3122;BME280;1571;52.524;14.104;2023-02-12T12:55:55;103116.66;;;6.97;100.00
3122;BME280;1571;52.524;14.104;2023-02-12T12:58:40;103126.16;;;7.18;100.00
3122;BME280;1571;52.524;14.104;2023-02-12T13:01:36;103124.38;;;7.17;100.00
3122;BME280;1571;52.524;14.104;2023-02-12T13:07:20;103128.88;;;7.09;100.00
3122;BME280;1571;52.524;14.104;2023-02-12T13:10:12;103122.72;;;7.10;100.00
3122;BME280;1571;52.524;14.104;2023-02-12T13:13:00;103120.06;;;7.10;100.00
3122;BME280;1571;52.524;14.104;2023-02-12T13:15:37;103120.97;;;7.04;100.00
3122;BME280;1571;52.524;14.104;2023-02-12T13:18:21;103121.97;;;6.94;100.00
3122;BME280;1571;52.524;14.104;2023-02-12T13:20:58;103126.28;;;7.04;100.00
3122;BME280;1571;52.524;14.104;2023-02-12T13:23:37;103123.72;;;6.97;100.00
3122;BME280;1571;52.524;14.104;2023-02-12T13:26:14;103128.03;;;7.04;100.00
3122;BME280;1571;52.524;14.104;2023-02-12T13:28:47;103121.72;;;7.20;100.00
3122;BME280;1571;52.524;14.104;2023-02-12T13:31:20;103121.59;;;7.33;100.00
3122;BME280;1571;52.524;14.104;2023-02-12T13:34:06;103123.31;;;7.35;100.00
3122;BME280;1571;52.524;14.104;2023-02-12T13:36:39;103110.06;;;7.38;100.00